Time;durP1;ratioP1;P1;durP2;ratioP2;P2;SDS_P1;SDS_P2;PMS_P1;PMS_P2;Temp;Humidity;BMP_temperature;BMP_pressure;BME280_temperature;BME280_humidity;BME280_pressure;Samples;Min_cycle;Max_cycle;Signal;HPM_P1;HPM_P2
2022/04/30 00:00:33;;;;;;;5.10;2.13;;;2.70;99.90;;;;;;4956653;28;20035;-77
2022/04/30 00:03:01;;;;;;;2.42;1.85;;;2.70;99.90;;;;;;4956231;28;20047;-78
2022/04/30 00:05:32;;;;;;;7.93;1.40;;;2.70;99.90;;;;;;4955858;28;20519;-76
2022/04/30 00:08:00;;;;;;;5.47;1.55;;;2.80;99.90;;;;;;4978582;28;20060;-79
2022/04/30 00:10:27;;;;;;;2.80;1.60;;;2.70;99.90;;;;;;4953614;28;20051;-78
2022/04/30 00:12:55;;;;;;;2.80;1.60;;;2.80;99.90;;;;;;4955070;28;20137;-77
2022/04/30 00:15:22;;;;;;;3.35;1.33;;;2.80;99.90;;;;;;4970283;28;20074;-76
2022/04/30 00:17:51;;;;;;;7.18;2.03;;;2.80;99.90;;;;;;4954499;28;20066;-77
2022/04/30 00:20:19;;;;;;;3.70;1.67;;;2.80;99.90;;;;;;4952706;28;20139;-78
2022/04/30 00:22:46;;;;;;;2.10;1.50;;;2.90;99.90;;;;;;4969374;28;20067;-78
2022/04/30 00:25:14;;;;;;;3.17;1.65;;;2.90;99.90;;;;;;4953292;28;20130;-76
2022/04/30 00:27:42;;;;;;;2.97;1.20;;;2.90;99.90;;;;;;4966978;28;20479;-78
2022/04/30 00:30:12;;;;;;;4.85;1.65;;;2.90;99.90;;;;;;4971266;28;20055;-77
2022/04/30 00:32:39;;;;;;;4.95;1.80;;;3.00;99.90;;;;;;4960939;28;20407;-77
2022/04/30 00:35:09;;;;;;;4.38;1.52;;;2.90;99.90;;;;;;4963582;28;20079;-78
2022/04/30 00:37:36;;;;;;;11.93;2.03;;;2.90;99.90;;;;;;4952309;28;20065;-78
2022/04/30 00:40:06;;;;;;;9.82;2.05;;;2.80;99.90;;;;;;4958303;28;20467;-78
2022/04/30 00:42:33;;;;;;;3.30;1.40;;;2.80;99.90;;;;;;4953055;28;20078;-79
2022/04/30 00:45:01;;;;;;;7.93;1.88;;;2.70;99.90;;;;;;4953091;28;20062;-78
2022/04/30 00:47:28;;;;;;;4.30;1.52;;;2.60;99.90;;;;;;4965059;28;20549;-78
2022/04/30 00:49:56;;;;;;;6.10;1.90;;;2.50;99.90;;;;;;4967129;28;20157;-77
2022/04/30 00:52:26;;;;;;;3.45;1.52;;;2.50;99.90;;;;;;4967290;28;20051;-77
2022/04/30 00:55:00;;;;;;;2.85;1.33;;;2.40;99.90;;;;;;4951337;28;20490;-75
2022/04/30 00:57:32;;;;;;;5.13;1.88;;;2.40;99.90;;;;;;4970185;28;20089;-77
2022/04/30 01:00:02;;;;;;;2.58;1.30;;;2.30;99.90;;;;;;4971595;28;20062;-78
2022/04/30 01:02:37;;;;;;;3.67;1.77;;;2.30;99.90;;;;;;4960915;28;20081;-77
2022/04/30 01:05:23;;;;;;;2.13;1.27;;;2.20;99.90;;;;;;4953348;28;20043;-77
2022/04/30 01:07:52;;;;;;;2.63;1.30;;;2.10;99.90;;;;;;4952907;29;20070;-77
2022/04/30 01:10:20;;;;;;;1.42;1.20;;;2.10;99.90;;;;;;4980501;28;20141;-78
2022/04/30 01:12:48;;;;;;;2.60;1.30;;;2.00;99.90;;;;;;4969352;28;20043;-77
2022/04/30 01:15:16;;;;;;;2.25;1.20;;;1.90;99.90;;;;;;4954258;28;20608;-77
2022/04/30 01:17:44;;;;;;;2.95;1.30;;;1.90;99.90;;;;;;4954177;28;20043;-78
2022/04/30 01:20:12;;;;;;;2.92;1.40;;;1.80;99.90;;;;;;4953151;28;20109;-77
2022/04/30 01:22:58;;;;;;;1.83;1.00;;;1.80;99.90;;;;;;4951619;29;20069;-77
2022/04/30 01:25:26;;;;;;;5.00;1.17;;;1.70;99.90;;;;;;4953425;29;20050;-77
2022/04/30 01:27:54;;;;;;;4.57;1.63;;;1.70;99.90;;;;;;4954311;28;20047;-77
2022/04/30 01:30:22;;;;;;;1.42;1.20;;;1.60;99.90;;;;;;4967412;28;20057;-77
2022/04/30 01:38:24;;;;;;;1.83;1.10;;;1.50;99.90;;;;;;4963037;28;20046;-78
2022/04/30 01:40:52;;;;;;;2.80;1.02;;;1.50;99.90;;;;;;4973171;28;20057;-76
2022/04/30 01:43:20;;;;;;;3.70;1.70;;;1.40;99.90;;;;;;4959617;28;20039;-77
2022/04/30 01:45:48;;;;;;;4.60;1.60;;;1.40;99.90;;;;;;4936550;29;20424;-77
2022/04/30 01:48:16;;;;;;;3.53;1.25;;;1.40;99.90;;;;;;4952670;28;20632;-76
2022/04/30 01:50:47;;;;;;;3.28;1.25;;;1.40;99.90;;;;;;4952315;28;20052;-77
2022/04/30 01:53:15;;;;;;;2.97;1.40;;;1.30;99.90;;;;;;4965222;28;20055;-78
2022/04/30 01:55:44;;;;;;;1.38;1.20;;;1.30;99.90;;;;;;4972004;28;20050;-78
2022/04/30 01:58:21;;;;;;;1.35;1.15;;;1.30;99.90;;;;;;4956967;28;20050;-77
2022/04/30 02:00:49;;;;;;;1.15;1.05;;;1.30;99.90;;;;;;4953064;28;20130;-77
2022/04/30 02:03:17;;;;;;;3.58;1.60;;;1.20;99.90;;;;;;4968100;28;20080;-77
2022/04/30 02:05:45;;;;;;;1.85;1.10;;;1.20;99.90;;;;;;4955243;28;20047;-77
2022/04/30 02:08:16;;;;;;;4.72;1.52;;;1.20;99.90;;;;;;4963334;28;20051;-77
2022/04/30 02:10:48;;;;;;;1.40;1.30;;;1.20;99.90;;;;;;4967601;28;20050;-77
2022/04/30 02:13:20;;;;;;;1.85;1.05;;;1.10;99.90;;;;;;4967931;28;20047;-77
2022/04/30 02:15:50;;;;;;;4.32;1.30;;;1.10;99.90;;;;;;4948857;28;20149;-76
2022/04/30 02:18:19;;;;;;;1.42;0.90;;;1.10;99.90;;;;;;4966131;28;20053;-76
2022/04/30 02:20:50;;;;;;;4.05;1.10;;;1.10;99.90;;;;;;4954170;28;20055;-76
2022/04/30 02:23:22;;;;;;;2.22;1.50;;;1.10;99.90;;;;;;4966113;28;20062;-76
2022/04/30 02:25:52;;;;;;;2.60;1.10;;;1.10;99.90;;;;;;4955039;28;20054;-77
2022/04/30 02:28:19;;;;;;;4.20;1.40;;;1.00;99.90;;;;;;4941193;29;20051;-77
2022/04/30 02:30:48;;;;;;;11.05;2.65;;;1.00;99.90;;;;;;4950005;28;20400;-77
2022/04/30 02:33:17;;;;;;;1.58;1.13;;;1.00;99.90;;;;;;4967432;28;20058;-74
2022/04/30 02:35:45;;;;;;;3.55;1.30;;;1.00;99.90;;;;;;4944542;28;20534;-76
2022/04/30 02:38:13;;;;;;;3.20;1.20;;;1.00;99.90;;;;;;4949520;28;20054;-77
2022/04/30 02:40:44;;;;;;;4.00;1.25;;;1.10;99.90;;;;;;4966972;28;20051;-77
2022/04/30 02:43:16;;;;;;;4.50;1.20;;;1.10;99.90;;;;;;4952488;28;20059;-77
2022/04/30 02:45:44;;;;;;;14.00;1.65;;;1.10;99.90;;;;;;4934254;29;20051;-77
2022/04/30 02:48:18;;;;;;;3.72;1.55;;;1.10;99.90;;;;;;4952227;28;20078;-77
2022/04/30 02:50:45;;;;;;;3.42;1.40;;;1.10;99.90;;;;;;4952840;28;20055;-77
2022/04/30 02:53:13;;;;;;;6.00;2.03;;;1.10;99.90;;;;;;4952103;28;20377;-77
2022/04/30 02:55:41;;;;;;;3.97;1.65;;;1.10;99.90;;;;;;4950826;29;20055;-77
2022/04/30 03:00:55;;;;;;;7.97;1.65;;;1.10;99.90;;;;;;4972383;28;20055;-72
2022/04/30 03:03:29;;;;;;;3.97;1.73;;;1.10;99.90;;;;;;4952135;28;20527;-74
2022/04/30 03:05:57;;;;;;;3.83;1.98;;;1.20;99.90;;;;;;4950647;28;20545;-72
2022/04/30 03:08:29;;;;;;;3.28;1.90;;;1.20;99.90;;;;;;4953959;28;20399;-73
2022/04/30 03:10:58;;;;;;;3.70;1.83;;;1.20;99.90;;;;;;4987475;28;20054;-72
2022/04/30 03:13:26;;;;;;;3.22;1.80;;;1.20;99.90;;;;;;4965574;28;20050;-72
2022/04/30 03:21:41;;;;;;;4.70;1.98;;;1.20;99.90;;;;;;4954933;28;20055;-72
2022/04/30 03:21:45;;;;;;;4.82;1.30;;;1.30;99.90;;;;;;4954743;28;20059;-72
2022/04/30 03:24:15;;;;;;;3.67;1.85;;;1.20;99.90;;;;;;4956232;28;20053;-72
2022/04/30 03:26:44;;;;;;;10.52;2.03;;;1.30;99.90;;;;;;4957153;28;20051;-72
2022/04/30 03:29:11;;;;;;;3.53;1.65;;;1.30;99.90;;;;;;4973273;28;20538;-71
2022/04/30 03:31:41;;;;;;;4.07;1.30;;;1.30;99.90;;;;;;4954793;28;20053;-71
2022/04/30 03:34:09;;;;;;;3.05;1.55;;;1.30;99.90;;;;;;4957156;28;20047;-71
2022/04/30 03:36:39;;;;;;;2.53;2.00;;;1.30;99.90;;;;;;4970537;28;20048;-72
2022/04/30 03:39:07;;;;;;;6.60;1.50;;;1.40;99.90;;;;;;4956123;29;20142;-72
2022/04/30 03:41:35;;;;;;;5.15;2.05;;;1.40;99.90;;;;;;4955611;28;20066;-78
2022/04/30 03:44:02;;;;;;;1.73;1.63;;;1.40;99.90;;;;;;4974082;28;20050;-78
2022/04/30 03:46:29;;;;;;;2.53;1.60;;;1.40;99.90;;;;;;4956879;28;20543;-77
2022/04/30 03:49:00;;;;;;;5.63;2.03;;;1.50;99.90;;;;;;4955087;28;20535;-77
2022/04/30 03:51:27;;;;;;;2.47;1.45;;;1.50;99.90;;;;;;4970655;28;20057;-78
2022/04/30 03:53:55;;;;;;;1.83;1.65;;;1.50;99.90;;;;;;4955179;28;20049;-77
2022/04/30 03:56:24;;;;;;;3.65;1.42;;;1.60;99.90;;;;;;4955604;28;20051;-78
2022/04/30 03:58:51;;;;;;;2.72;1.25;;;1.60;99.90;;;;;;4960790;28;20496;-78
2022/04/30 04:01:19;;;;;;;3.58;1.40;;;1.60;99.90;;;;;;4946290;28;20197;-78
2022/04/30 04:03:48;;;;;;;2.00;1.50;;;1.70;99.90;;;;;;4954355;28;20051;-78
2022/04/30 04:06:17;;;;;;;6.70;2.00;;;1.70;99.90;;;;;;4968789;28;20051;-78
2022/04/30 04:08:49;;;;;;;2.72;1.58;;;1.70;99.90;;;;;;4939011;29;20110;-77
2022/04/30 04:11:17;;;;;;;5.63;1.98;;;1.80;99.90;;;;;;4977872;28;20043;-77
2022/04/30 04:19:14;;;;;;;2.20;1.70;;;1.90;99.90;;;;;;4969799;28;20047;-71
2022/04/30 04:21:43;;;;;;;4.55;1.67;;;1.90;99.90;;;;;;4934642;29;20051;-71
2022/04/30 04:26:55;;;;;;;1.60;1.00;;;2.00;99.90;;;;;;4955455;29;20149;-77
2022/04/30 04:29:23;;;;;;;3.83;1.25;;;2.10;99.90;;;;;;4952827;28;20142;-71
2022/04/30 04:31:51;;;;;;;8.20;1.52;;;2.10;99.90;;;;;;4953882;28;20079;-72
2022/04/30 04:34:18;;;;;;;3.67;1.40;;;2.10;99.90;;;;;;4954199;29;20040;-78
2022/04/30 04:36:47;;;;;;;3.25;1.38;;;2.20;99.90;;;;;;4959442;28;20051;-78
2022/04/30 04:39:16;;;;;;;2.10;1.10;;;2.30;99.90;;;;;;4957909;28;20043;-78
2022/04/30 04:41:45;;;;;;;2.50;1.00;;;2.40;99.90;;;;;;4955638;29;20051;-77
2022/04/30 04:44:12;;;;;;;8.13;1.33;;;2.40;99.90;;;;;;4963274;28;20093;-77
2022/04/30 04:46:41;;;;;;;4.53;1.55;;;2.50;99.90;;;;;;4968486;28;20046;-77
2022/04/30 04:49:12;;;;;;;3.28;1.38;;;2.50;99.90;;;;;;4954131;29;20082;-77
2022/04/30 04:51:41;;;;;;;3.70;0.95;;;2.60;99.90;;;;;;4960932;28;20060;-71
2022/04/30 04:54:11;;;;;;;4.65;1.20;;;2.70;99.90;;;;;;4956464;28;20043;-77
2022/04/30 04:56:39;;;;;;;2.20;1.30;;;2.70;99.90;;;;;;4943714;29;20511;-70
2022/04/30 04:59:08;;;;;;;2.97;1.20;;;2.80;99.90;;;;;;4949555;28;20179;-77
2022/04/30 05:01:37;;;;;;;1.42;0.60;;;2.80;99.90;;;;;;4963385;28;20055;-71
2022/04/30 05:04:09;;;;;;;0.85;0.80;;;2.90;99.90;;;;;;4955700;29;20059;-71
2022/04/30 05:06:36;;;;;;;4.32;1.05;;;3.00;99.90;;;;;;4953131;28;20078;-72
2022/04/30 05:09:04;;;;;;;3.30;0.80;;;3.10;99.90;;;;;;4970457;28;20093;-77
2022/04/30 05:11:33;;;;;;;1.33;0.82;;;3.10;99.00;;;;;;4965039;28;20082;-78
2022/04/30 05:14:00;;;;;;;1.35;0.88;;;3.10;98.40;;;;;;4955509;28;20094;-77
2022/04/30 05:16:27;;;;;;;2.30;0.95;;;3.40;98.40;;;;;;4969363;28;20116;-77
2022/04/30 05:18:55;;;;;;;2.05;1.00;;;3.80;98.20;;;;;;4954646;29;20043;-77
2022/04/30 05:21:24;;;;;;;4.72;0.75;;;4.40;96.20;;;;;;4950413;28;20503;-77
2022/04/30 05:23:52;;;;;;;2.72;1.20;;;4.90;90.80;;;;;;4949757;29;20059;-77
2022/04/30 05:26:19;;;;;;;3.30;1.13;;;5.40;85.60;;;;;;4950914;29;20496;-77
2022/04/30 05:28:48;;;;;;;7.88;1.35;;;5.80;76.60;;;;;;4951632;29;20438;-77
2022/04/30 05:31:15;;;;;;;5.20;1.58;;;6.10;74.30;;;;;;4953001;29;20134;-78
2022/04/30 05:33:52;;;;;;;6.13;1.77;;;6.50;72.70;;;;;;4953375;28;20055;-79
2022/04/30 05:36:20;;;;;;;5.35;2.33;;;6.90;71.40;;;;;;4954244;28;20047;-78
2022/04/30 05:38:48;;;;;;;5.03;0.88;;;7.30;67.60;;;;;;4967879;28;20142;-77
2022/04/30 05:41:18;;;;;;;1.40;0.80;;;7.50;65.00;;;;;;4955535;29;20047;-78
2022/04/30 05:43:50;;;;;;;2.28;0.90;;;7.90;63.40;;;;;;4973644;28;20051;-79
2022/04/30 05:46:17;;;;;;;8.60;1.20;;;8.40;61.60;;;;;;4954060;29;20427;-79
2022/04/30 05:48:47;;;;;;;5.93;0.82;;;9.00;59.40;;;;;;4953042;29;20047;-81
2022/04/30 05:51:15;;;;;;;3.92;1.50;;;9.30;56.40;;;;;;4952639;29;20090;-78
2022/04/30 05:53:43;;;;;;;4.28;0.90;;;9.60;55.70;;;;;;4962855;28;20049;-78
2022/04/30 05:56:11;;;;;;;1.25;0.70;;;9.80;54.90;;;;;;4931566;29;20051;-78
2022/04/30 05:58:38;;;;;;;3.67;0.70;;;9.90;54.00;;;;;;4950373;28;20049;-75
2022/04/30 06:01:08;;;;;;;5.18;0.75;;;10.00;53.60;;;;;;4957570;28;20113;-78
2022/04/30 06:03:35;;;;;;;2.50;1.25;;;10.20;53.20;;;;;;4953376;29;20051;-78
2022/04/30 06:06:03;;;;;;;2.53;0.73;;;10.40;52.30;;;;;;4950838;28;20082;-72
2022/04/30 06:08:31;;;;;;;3.65;0.75;;;10.60;51.90;;;;;;4952425;28;20051;-72
2022/04/30 06:11:00;;;;;;;10.48;1.17;;;10.70;50.60;;;;;;4942992;29;20143;-73
2022/04/30 06:13:28;;;;;;;3.00;0.82;;;11.00;50.50;;;;;;4966398;28;20607;-72
2022/04/30 06:15:55;;;;;;;3.25;0.90;;;11.20;49.50;;;;;;4951328;28;20138;-73
2022/04/30 06:18:25;;;;;;;2.38;0.60;;;11.50;48.80;;;;;;4955681;28;20042;-73
2022/04/30 06:20:52;;;;;;;4.05;0.68;;;11.80;48.50;;;;;;4959631;28;20047;-72
2022/04/30 06:23:20;;;;;;;2.75;1.10;;;12.00;47.60;;;;;;4967259;28;20051;-73
2022/04/30 06:25:48;;;;;;;7.43;2.00;;;12.30;47.80;;;;;;4967646;28;20081;-73
2022/04/30 06:28:16;;;;;;;2.53;1.02;;;12.40;46.80;;;;;;4950891;28;20047;-72
2022/04/30 06:30:44;;;;;;;7.07;0.85;;;12.80;46.60;;;;;;4952724;28;20138;-74
2022/04/30 06:33:11;;;;;;;2.80;0.90;;;13.00;44.50;;;;;;4955091;28;20043;-80
2022/04/30 06:35:40;;;;;;;1.08;0.80;;;13.10;45.20;;;;;;4968121;28;20442;-78
2022/04/30 06:38:07;;;;;;;3.08;0.82;;;13.30;44.00;;;;;;4953106;28;20051;-77
2022/04/30 06:40:35;;;;;;;7.85;1.50;;;13.30;44.10;;;;;;4945011;28;20058;-76
2022/04/30 06:43:03;;;;;;;3.17;0.63;;;13.60;44.50;;;;;;4947524;28;20047;-74
2022/04/30 06:45:32;;;;;;;1.73;0.60;;;13.90;44.30;;;;;;4943677;29;20135;-73
2022/04/30 06:47:59;;;;;;;4.60;0.90;;;14.20;43.60;;;;;;4964473;28;20047;-72
2022/04/30 06:50:27;;;;;;;4.93;0.50;;;14.50;42.50;;;;;;4963975;28;20422;-73
2022/04/30 06:58:27;;;;;;;2.80;1.15;;;14.80;42.50;;;;;;4948629;28;20142;-74
2022/04/30 07:01:26;;;;;;;4.15;1.17;;;14.90;42.10;;;;;;4950344;28;20063;-74
2022/04/30 07:04:01;;;;;;;4.53;1.13;;;15.20;42.00;;;;;;4947174;29;20054;-73
2022/04/30 07:06:29;;;;;;;1.13;0.95;;;15.50;40.40;;;;;;4955046;28;20075;-73
2022/04/30 07:08:58;;;;;;;1.08;0.70;;;15.10;40.20;;;;;;4966209;28;20049;-79
2022/04/30 07:11:26;;;;;;;2.95;0.75;;;15.10;40.20;;;;;;4946581;28;20047;-78
2022/04/30 07:13:54;;;;;;;4.00;0.52;;;15.60;40.30;;;;;;4962488;28;20078;-77
2022/04/30 07:16:21;;;;;;;4.43;0.50;;;15.70;39.90;;;;;;4948879;28;20059;-74
2022/04/30 07:18:49;;;;;;;3.97;0.80;;;15.60;40.20;;;;;;4958305;28;20051;-73
2022/04/30 07:21:19;;;;;;;2.50;1.60;;;16.00;40.30;;;;;;4945221;28;20050;-73
2022/04/30 07:23:49;;;;;;;3.20;0.68;;;16.00;39.40;;;;;;4949690;28;20059;-77
2022/04/30 07:26:17;;;;;;;2.30;0.93;;;16.20;39.90;;;;;;4945936;28;20039;-77
2022/04/30 07:28:46;;;;;;;1.52;0.60;;;16.50;39.90;;;;;;4947715;29;20063;-73
2022/04/30 07:31:14;;;;;;;6.72;1.38;;;16.80;38.70;;;;;;4962640;28;20542;-72
2022/04/30 07:33:42;;;;;;;5.03;1.08;;;16.70;38.70;;;;;;4942877;29;20048;-73
2022/04/30 07:36:10;;;;;;;3.58;0.52;;;16.80;39.00;;;;;;4944095;29;20075;-72
2022/04/30 07:38:39;;;;;;;4.95;1.42;;;17.00;38.80;;;;;;4952806;28;20108;-73
2022/04/30 07:41:07;;;;;;;2.28;0.70;;;17.30;39.00;;;;;;4963877;28;20539;-73
2022/04/30 07:43:35;;;;;;;5.95;0.60;;;17.50;38.40;;;;;;4949812;28;20053;-74
2022/04/30 07:46:03;;;;;;;4.55;0.85;;;17.70;38.10;;;;;;4949718;28;20062;-73
2022/04/30 07:48:31;;;;;;;2.72;0.90;;;17.90;37.60;;;;;;4950820;28;20063;-73
2022/04/30 07:50:58;;;;;;;3.22;0.65;;;17.70;37.50;;;;;;4949656;28;20047;-72
2022/04/30 07:53:26;;;;;;;3.65;0.80;;;17.90;37.80;;;;;;4956738;28;20064;-78
2022/04/30 07:55:55;;;;;;;1.83;1.55;;;17.90;37.10;;;;;;4946195;28;20051;-77
2022/04/30 07:58:24;;;;;;;3.70;0.68;;;18.00;36.80;;;;;;4944481;29;20044;-76
2022/04/30 08:00:53;;;;;;;5.03;0.75;;;18.00;36.70;;;;;;4947455;29;20051;-78
2022/04/30 08:03:22;;;;;;;1.67;0.60;;;17.80;36.90;;;;;;4943572;29;20053;-73
2022/04/30 08:05:49;;;;;;;1.15;0.50;;;17.90;38.20;;;;;;4958298;28;20059;-79
2022/04/30 08:08:17;;;;;;;2.05;0.40;;;17.90;36.80;;;;;;4945830;28;20095;-78
2022/04/30 08:10:45;;;;;;;4.35;0.55;;;18.10;36.60;;;;;;4946012;29;20544;-71
2022/04/30 08:13:13;;;;;;;1.75;0.43;;;17.80;37.40;;;;;;4950784;28;20118;-73
2022/04/30 08:15:43;;;;;;;2.72;1.02;;;18.00;37.70;;;;;;4945477;29;20039;-71
2022/04/30 08:18:12;;;;;;;1.25;0.50;;;18.30;37.00;;;;;;4948371;29;20051;-72
2022/04/30 08:20:40;;;;;;;4.03;0.65;;;17.80;37.60;;;;;;4954344;28;20062;-71
2022/04/30 08:23:09;;;;;;;5.22;0.80;;;17.50;39.00;;;;;;4954340;28;20047;-72
2022/04/30 08:25:38;;;;;;;3.03;0.98;;;17.10;38.10;;;;;;4952884;29;20054;-72
2022/04/30 08:28:07;;;;;;;3.55;0.60;;;16.30;40.40;;;;;;4954137;29;20051;-73
2022/04/30 08:30:34;;;;;;;0.80;0.50;;;16.50;40.30;;;;;;4952572;29;20062;-73
2022/04/30 08:33:02;;;;;;;1.55;0.80;;;16.90;39.50;;;;;;4953676;28;20066;-71
2022/04/30 08:35:31;;;;;;;5.35;0.85;;;17.30;39.30;;;;;;4936134;29;20062;-78
2022/04/30 08:37:59;;;;;;;2.45;0.70;;;17.70;38.40;;;;;;4937513;28;20133;-73
2022/04/30 08:40:28;;;;;;;2.85;0.80;;;17.90;37.90;;;;;;4934936;29;20047;-73
2022/04/30 08:43:07;;;;;;;3.83;0.82;;;18.20;38.20;;;;;;4952689;28;20507;-72
2022/04/30 08:45:38;;;;;;;6.22;1.20;;;18.70;37.40;;;;;;4976615;28;20051;-79
2022/04/30 08:48:09;;;;;;;1.95;0.63;;;18.80;37.40;;;;;;4963310;28;20054;-79
2022/04/30 08:50:40;;;;;;;1.45;0.50;;;19.10;37.30;;;;;;4945287;29;20424;-79
2022/04/30 08:53:08;;;;;;;3.58;0.70;;;19.60;36.80;;;;;;4942256;28;20055;-79
2022/04/30 08:55:36;;;;;;;0.70;0.68;;;19.60;36.60;;;;;;4945173;28;20408;-79
2022/04/30 08:58:04;;;;;;;2.33;0.60;;;19.50;36.50;;;;;;4945034;28;20055;-79
2022/04/30 09:00:39;;;;;;;3.58;0.90;;;19.80;36.40;;;;;;4965243;28;20412;-77
2022/04/30 09:03:07;;;;;;;2.13;0.60;;;20.10;36.20;;;;;;4946661;28;20058;-78
2022/04/30 09:05:36;;;;;;;3.03;0.63;;;20.00;36.30;;;;;;4950214;29;20039;-74
2022/04/30 09:08:07;;;;;;;4.03;0.85;;;20.30;37.20;;;;;;4949818;28;20515;-74
2022/04/30 09:10:37;;;;;;;2.38;0.70;;;20.60;36.60;;;;;;4949518;28;20051;-71
2022/04/30 09:13:07;;;;;;;2.20;0.70;;;20.80;35.90;;;;;;4951989;28;20047;-73
2022/04/30 09:15:36;;;;;;;1.70;0.70;;;20.90;35.50;;;;;;4954479;28;20077;-71
2022/04/30 09:18:07;;;;;;;3.58;0.88;;;21.40;35.60;;;;;;4961413;28;20529;-80
2022/04/30 09:20:46;;;;;;;1.02;0.50;;;21.50;34.70;;;;;;4960485;28;20054;-77
2022/04/30 09:23:25;;;;;;;3.72;1.60;;;21.50;34.20;;;;;;4970054;28;20101;-78
2022/04/30 09:25:55;;;;;;;4.82;0.73;;;21.40;34.60;;;;;;4972169;28;20058;-79
2022/04/30 09:28:27;;;;;;;5.28;0.60;;;21.40;34.60;;;;;;4971733;28;20129;-78
2022/04/30 09:31:11;;;;;;;2.90;1.00;;;21.30;33.60;;;;;;4965951;28;20051;-79
2022/04/30 09:33:40;;;;;;;2.60;0.82;;;21.40;33.50;;;;;;4952162;29;20059;-80
2022/04/30 09:38:56;;;;;;;3.47;0.70;;;21.20;34.10;;;;;;4953063;29;20074;-79
2022/04/30 09:41:26;;;;;;;1.45;0.47;;;21.00;33.80;;;;;;4969240;28;20061;-77
2022/04/30 09:44:05;;;;;;;4.07;0.77;;;20.80;34.50;;;;;;4937386;29;20055;-79
2022/04/30 09:46:38;;;;;;;9.50;0.85;;;20.70;33.60;;;;;;4944692;28;20055;-79
2022/04/30 09:54:42;;;;;;;5.15;2.90;;;21.50;32.20;;;;;;4974784;28;20051;-79
2022/04/30 09:57:11;;;;;;;0.50;0.32;;;21.50;32.00;;;;;;4975754;28;20404;-77
2022/04/30 09:59:41;;;;;;;2.15;0.75;;;21.50;32.00;;;;;;4956766;28;20062;-73
2022/04/30 10:02:12;;;;;;;1.95;0.70;;;21.10;31.70;;;;;;4972897;28;20055;-74
2022/04/30 10:04:40;;;;;;;2.17;0.50;;;21.10;32.10;;;;;;4971613;28;20507;-73
2022/04/30 10:07:08;;;;;;;3.90;0.70;;;21.10;32.30;;;;;;4987452;28;20137;-75
2022/04/30 10:09:42;;;;;;;6.32;0.70;;;20.90;33.30;;;;;;4971230;28;20055;-72
2022/04/30 10:12:18;;;;;;;2.13;0.75;;;21.00;32.00;;;;;;4972507;28;20051;-73
2022/04/30 10:14:59;;;;;;;1.95;0.50;;;21.10;32.70;;;;;;4953346;28;20086;-73
2022/04/30 10:17:29;;;;;;;3.88;0.60;;;21.10;32.00;;;;;;4953239;28;20428;-74
2022/04/30 10:20:04;;;;;;;3.72;0.50;;;21.30;32.10;;;;;;4953150;28;20075;-74
2022/04/30 10:22:32;;;;;;;2.80;0.40;;;21.60;31.30;;;;;;4953142;28;20058;-74
2022/04/30 10:25:01;;;;;;;8.07;1.02;;;21.50;30.30;;;;;;4953095;29;20059;-74
2022/04/30 10:27:42;;;;;;;1.23;0.70;;;21.30;30.90;;;;;;4953064;28;20063;-73
2022/04/30 10:30:23;;;;;;;1.60;0.60;;;21.40;32.20;;;;;;4935732;29;20121;-74
2022/04/30 10:33:01;;;;;;;1.85;0.60;;;21.70;32.20;;;;;;4953324;28;20059;-75
2022/04/30 10:35:33;;;;;;;2.53;0.70;;;21.70;30.40;;;;;;4951684;29;20102;-75
2022/04/30 10:38:13;;;;;;;4.63;1.10;;;21.60;30.00;;;;;;4936007;29;20051;-74
2022/04/30 10:40:47;;;;;;;1.83;0.47;;;21.90;30.90;;;;;;4946501;28;20071;-74
2022/04/30 10:43:20;;;;;;;2.83;0.38;;;22.20;29.70;;;;;;4933741;29;20571;-73
2022/04/30 10:45:48;;;;;;;3.00;0.63;;;22.50;29.10;;;;;;4930819;29;20054;-74
2022/04/30 10:48:19;;;;;;;0.47;0.47;;;22.50;29.30;;;;;;4933777;29;20043;-74
2022/04/30 10:50:51;;;;;;;4.30;0.55;;;22.70;28.50;;;;;;4930875;29;20084;-73
2022/04/30 10:53:23;;;;;;;2.58;0.50;;;22.50;28.60;;;;;;4927137;29;20142;-74
2022/04/30 10:55:55;;;;;;;3.45;0.68;;;22.30;28.90;;;;;;4927604;29;20102;-75
2022/04/30 10:58:25;;;;;;;5.35;1.00;;;22.10;29.20;;;;;;4946469;29;20051;-77
2022/04/30 11:00:53;;;;;;;5.15;0.50;;;22.10;29.20;;;;;;4939554;29;20591;-74
2022/04/30 11:03:27;;;;;;;0.90;0.55;;;22.30;29.60;;;;;;4936536;29;20044;-73
2022/04/30 11:05:55;;;;;;;1.95;0.63;;;22.80;29.10;;;;;;4921706;29;20146;-73
2022/04/30 11:08:23;;;;;;;2.92;0.50;;;22.90;29.10;;;;;;4931680;29;20059;-73
2022/04/30 11:10:57;;;;;;;5.13;1.02;;;23.30;29.50;;;;;;4913701;29;20064;-74
2022/04/30 11:13:25;;;;;;;2.30;0.85;;;23.50;29.40;;;;;;4913095;29;20143;-73
2022/04/30 11:15:52;;;;;;;0.60;0.50;;;23.50;29.00;;;;;;4919889;29;20517;-73
2022/04/30 11:18:20;;;;;;;5.53;0.63;;;23.60;28.60;;;;;;4926678;29;20048;-73
2022/04/30 11:20:48;;;;;;;2.60;0.40;;;23.40;29.10;;;;;;4933518;29;20094;-73
2022/04/30 11:23:23;;;;;;;2.38;0.68;;;23.30;29.00;;;;;;4927207;29;20045;-74
2022/04/30 11:25:53;;;;;;;4.95;0.57;;;23.40;28.60;;;;;;4916877;29;20063;-74
2022/04/30 11:28:28;;;;;;;3.00;0.73;;;23.70;28.70;;;;;;4923888;29;20044;-74
2022/04/30 11:31:02;;;;;;;1.80;0.65;;;23.80;29.20;;;;;;4923369;29;20039;-73
2022/04/30 11:33:34;;;;;;;9.27;1.58;;;24.10;28.50;;;;;;4941609;29;20404;-73
2022/04/30 11:36:02;;;;;;;5.00;1.73;;;24.10;28.10;;;;;;4932123;29;20056;-73
2022/04/30 11:38:29;;;;;;;4.35;1.85;;;23.80;27.90;;;;;;4935656;29;20054;-73
2022/04/30 11:41:05;;;;;;;1.48;0.70;;;23.70;28.00;;;;;;4935977;29;20047;-73
2022/04/30 11:43:33;;;;;;;0.85;0.60;;;23.60;28.70;;;;;;4934068;29;20063;-73
2022/04/30 11:46:01;;;;;;;7.00;0.85;;;24.00;28.90;;;;;;4918041;28;20063;-72
2022/04/30 11:48:39;;;;;;;1.17;0.55;;;24.40;28.50;;;;;;4929874;29;20074;-72
2022/04/30 11:51:12;;;;;;;2.28;0.60;;;24.40;28.20;;;;;;4933720;29;20567;-81
2022/04/30 11:53:41;;;;;;;2.35;0.80;;;24.30;28.20;;;;;;4924514;29;20082;-79
2022/04/30 11:56:12;;;;;;;3.63;1.10;;;23.60;28.40;;;;;;4926092;29;20055;-82
2022/04/30 11:58:46;;;;;;;39.35;2.35;;;23.30;28.70;;;;;;4924230;29;20548;-79
2022/04/30 12:01:27;;;;;;;3.60;0.50;;;23.30;28.20;;;;;;4926191;29;20059;-79
2022/04/30 12:03:57;;;;;;;0.68;0.52;;;23.10;29.50;;;;;;4944965;29;20587;-79
2022/04/30 12:06:26;;;;;;;0.50;0.40;;;23.30;28.70;;;;;;4926737;29;20060;-79
2022/04/30 12:08:54;;;;;;;13.10;1.35;;;23.40;28.80;;;;;;4926129;29;20530;-79
2022/04/30 12:11:24;;;;;;;6.40;0.93;;;23.70;28.40;;;;;;4943071;29;20437;-73
2022/04/30 12:14:03;;;;;;;2.65;0.80;;;24.30;28.30;;;;;;4927293;29;20067;-71
2022/04/30 12:16:37;;;;;;;2.75;0.70;;;24.30;28.50;;;;;;4924213;29;20056;-80
2022/04/30 12:24:44;;;;;;;2.03;0.60;;;24.10;27.70;;;;;;4942368;29;20107;-81
2022/04/30 12:27:23;;;;;;;4.30;0.47;;;24.40;27.60;;;;;;4916318;29;20480;-80
2022/04/30 12:30:13;;;;;;;3.33;0.63;;;24.20;28.00;;;;;;4917710;29;20135;-80
2022/04/30 12:32:52;;;;;;;1.58;0.60;;;23.90;27.40;;;;;;4913546;29;20063;-80
2022/04/30 12:35:26;;;;;;;3.80;0.70;;;23.30;28.10;;;;;;4915736;29;20067;-80
2022/04/30 12:38:11;;;;;;;1.90;0.75;;;23.20;27.80;;;;;;4927903;29;20151;-80
2022/04/30 12:40:46;;;;;;;2.30;0.73;;;23.20;28.00;;;;;;4914711;29;20071;-75
2022/04/30 12:43:18;;;;;;;5.32;0.90;;;23.30;28.00;;;;;;4929775;29;20062;-73
2022/04/30 12:45:48;;;;;;;5.28;0.77;;;23.20;28.20;;;;;;4933531;29;20051;-74
2022/04/30 12:48:16;;;;;;;6.35;1.00;;;22.90;28.00;;;;;;4935371;28;20055;-79
2022/04/30 12:50:44;;;;;;;3.58;0.73;;;22.50;28.30;;;;;;4928012;29;20142;-79
2022/04/30 12:53:12;;;;;;;2.60;0.80;;;21.90;28.80;;;;;;4934142;29;20055;-80
2022/04/30 12:55:42;;;;;;;4.85;1.52;;;21.80;28.70;;;;;;4927972;29;20648;-80
2022/04/30 12:58:11;;;;;;;2.50;0.95;;;21.90;28.60;;;;;;4928262;29;20047;-79
2022/04/30 13:00:40;;;;;;;5.50;0.88;;;22.10;28.40;;;;;;4934932;29;20051;-78
2022/04/30 13:03:13;;;;;;;2.78;0.75;;;21.90;28.90;;;;;;4934716;29;20110;-76
2022/04/30 13:05:41;;;;;;;9.13;3.63;;;21.40;29.10;;;;;;4935947;29;20060;-73
2022/04/30 13:08:14;;;;;;;1.13;0.90;;;21.50;29.30;;;;;;4918401;29;20382;-73
2022/04/30 13:13:34;;;;;;;8.38;0.90;;;21.80;29.20;;;;;;4933474;29;20142;-79
2022/04/30 13:16:06;;;;;;;1.92;0.43;;;22.20;29.20;;;;;;4929042;29;20194;-82
2022/04/30 13:18:41;;;;;;;1.95;0.80;;;22.40;28.30;;;;;;4933719;29;20120;-75
2022/04/30 13:21:09;;;;;;;6.50;0.93;;;22.20;28.40;;;;;;4944692;29;20043;-75
2022/04/30 13:23:37;;;;;;;3.35;0.85;;;21.70;28.80;;;;;;4925605;29;20047;-81
2022/04/30 13:26:05;;;;;;;2.40;1.00;;;21.10;28.90;;;;;;4935677;29;20057;-80
2022/04/30 13:28:33;;;;;;;2.97;0.63;;;20.80;29.10;;;;;;4934428;29;20051;-79
2022/04/30 13:31:00;;;;;;;6.10;1.00;;;21.00;29.00;;;;;;4935061;29;20047;-80
2022/04/30 13:33:29;;;;;;;3.28;1.10;;;21.10;29.00;;;;;;4953255;29;20048;-84
2022/04/30 13:35:57;;;;;;;2.97;0.80;;;21.60;29.10;;;;;;4936707;29;20086;-79
2022/04/30 13:38:25;;;;;;;6.70;0.63;;;21.80;28.90;;;;;;4935688;29;20420;-80
2022/04/30 13:40:53;;;;;;;3.08;0.70;;;22.30;28.80;;;;;;4931102;29;20453;-74
2022/04/30 13:43:21;;;;;;;5.13;1.25;;;22.90;28.70;;;;;;4930375;29;20056;-74
2022/04/30 13:45:48;;;;;;;4.05;1.20;;;23.20;28.20;;;;;;4946464;29;20134;-74